sensor_id;sensor_type;location;lat;lon;timestamp;P1;durP1;ratioP1;P2;durP2;ratioP2
74967;SDS011;63523;51.880;12.630;2024-02-15T00:01:25;6.33;;;2.63;;
74967;SDS011;63523;51.880;12.630;2024-02-15T00:03:51;5.63;;;2.30;;
74967;SDS011;63523;51.880;12.630;2024-02-15T00:06:16;5.93;;;2.53;;
74967;SDS011;63523;51.880;12.630;2024-02-15T00:08:41;7.50;;;3.20;;
74967;SDS011;63523;51.880;12.630;2024-02-15T00:11:06;7.17;;;3.43;;
74967;SDS011;63523;51.880;12.630;2024-02-15T00:13:34;6.13;;;2.80;;
74967;SDS011;63523;51.880;12.630;2024-02-15T00:16:00;6.47;;;2.90;;
74967;SDS011;63523;51.880;12.630;2024-02-15T00:18:26;6.93;;;2.87;;
74967;SDS011;63523;51.880;12.630;2024-02-15T00:20:52;5.90;;;2.45;;
74967;SDS011;63523;51.880;12.630;2024-02-15T00:23:17;9.07;;;2.83;;
74967;SDS011;63523;51.880;12.630;2024-02-15T00:25:42;6.07;;;2.70;;
74967;SDS011;63523;51.880;12.630;2024-02-15T00:28:09;7.43;;;3.05;;
74967;SDS011;63523;51.880;12.630;2024-02-15T00:30:35;6.87;;;2.77;;
74967;SDS011;63523;51.880;12.630;2024-02-15T00:33:01;6.80;;;2.88;;
74967;SDS011;63523;51.880;12.630;2024-02-15T00:35:27;7.78;;;2.83;;
74967;SDS011;63523;51.880;12.630;2024-02-15T00:37:53;6.33;;;2.60;;
74967;SDS011;63523;51.880;12.630;2024-02-15T00:40:18;7.30;;;3.30;;
74967;SDS011;63523;51.880;12.630;2024-02-15T00:42:43;7.77;;;3.30;;
74967;SDS011;63523;51.880;12.630;2024-02-15T00:45:09;9.60;;;3.50;;
74967;SDS011;63523;51.880;12.630;2024-02-15T00:47:34;8.13;;;3.50;;
74967;SDS011;63523;51.880;12.630;2024-02-15T00:49:59;9.50;;;3.80;;
74967;SDS011;63523;51.880;12.630;2024-02-15T00:52:25;8.30;;;3.80;;
74967;SDS011;63523;51.880;12.630;2024-02-15T00:54:50;7.90;;;3.47;;
74967;SDS011;63523;51.880;12.630;2024-02-15T00:57:16;7.93;;;3.53;;
74967;SDS011;63523;51.880;12.630;2024-02-15T00:59:41;8.30;;;3.40;;
74967;SDS011;63523;51.880;12.630;2024-02-15T01:02:06;8.87;;;3.37;;
74967;SDS011;63523;51.880;12.630;2024-02-15T01:04:31;9.40;;;4.00;;
74967;SDS011;63523;51.880;12.630;2024-02-15T01:06:56;9.60;;;3.33;;
74967;SDS011;63523;51.880;12.630;2024-02-15T01:09:22;8.97;;;3.80;;
74967;SDS011;63523;51.880;12.630;2024-02-15T01:11:47;7.90;;;3.60;;
74967;SDS011;63523;51.880;12.630;2024-02-15T01:14:13;8.87;;;3.57;;
74967;SDS011;63523;51.880;12.630;2024-02-15T01:16:40;7.37;;;3.33;;
74967;SDS011;63523;51.880;12.630;2024-02-15T01:19:06;8.25;;;3.75;;
74967;SDS011;63523;51.880;12.630;2024-02-15T01:21:31;8.30;;;3.50;;
74967;SDS011;63523;51.880;12.630;2024-02-15T01:23:58;7.57;;;3.45;;
74967;SDS011;63523;51.880;12.630;2024-02-15T01:26:25;7.20;;;3.28;;
74967;SDS011;63523;51.880;12.630;2024-02-15T01:28:50;10.00;;;3.77;;
74967;SDS011;63523;51.880;12.630;2024-02-15T01:31:16;8.73;;;3.63;;
74967;SDS011;63523;51.880;12.630;2024-02-15T01:33:42;7.63;;;3.30;;
74967;SDS011;63523;51.880;12.630;2024-02-15T01:36:08;10.53;;;3.87;;
74967;SDS011;63523;51.880;12.630;2024-02-15T01:38:33;7.73;;;3.23;;
74967;SDS011;63523;51.880;12.630;2024-02-15T01:40:58;10.13;;;3.70;;
74967;SDS011;63523;51.880;12.630;2024-02-15T01:43:23;10.00;;;3.53;;
74967;SDS011;63523;51.880;12.630;2024-02-15T01:45:49;7.10;;;2.80;;
74967;SDS011;63523;51.880;12.630;2024-02-15T01:48:14;7.20;;;2.87;;
74967;SDS011;63523;51.880;12.630;2024-02-15T01:50:41;6.43;;;3.10;;
74967;SDS011;63523;51.880;12.630;2024-02-15T01:53:07;6.63;;;3.10;;
74967;SDS011;63523;51.880;12.630;2024-02-15T01:55:33;7.28;;;3.17;;
74967;SDS011;63523;51.880;12.630;2024-02-15T01:57:59;7.70;;;3.28;;
74967;SDS011;63523;51.880;12.630;2024-02-15T02:00:25;7.65;;;3.10;;
74967;SDS011;63523;51.880;12.630;2024-02-15T02:02:51;8.40;;;3.33;;
74967;SDS011;63523;51.880;12.630;2024-02-15T02:05:18;8.57;;;2.83;;
74967;SDS011;63523;51.880;12.630;2024-02-15T02:07:43;7.77;;;3.17;;
74967;SDS011;63523;51.880;12.630;2024-02-15T02:10:08;6.20;;;2.70;;
74967;SDS011;63523;51.880;12.630;2024-02-15T02:12:36;7.80;;;3.10;;
74967;SDS011;63523;51.880;12.630;2024-02-15T02:15:04;8.50;;;3.00;;
74967;SDS011;63523;51.880;12.630;2024-02-15T02:17:31;8.33;;;2.90;;
74967;SDS011;63523;51.880;12.630;2024-02-15T02:19:56;7.53;;;3.00;;
74967;SDS011;63523;51.880;12.630;2024-02-15T02:22:22;7.43;;;2.90;;
74967;SDS011;63523;51.880;12.630;2024-02-15T02:24:58;7.57;;;2.97;;
74967;SDS011;63523;51.880;12.630;2024-02-15T02:27:28;9.27;;;3.25;;
74967;SDS011;63523;51.880;12.630;2024-02-15T02:29:53;9.70;;;3.23;;
74967;SDS011;63523;51.880;12.630;2024-02-15T02:32:19;9.10;;;3.38;;
74967;SDS011;63523;51.880;12.630;2024-02-15T02:34:45;8.63;;;3.40;;
74967;SDS011;63523;51.880;12.630;2024-02-15T02:37:10;7.07;;;2.73;;
74967;SDS011;63523;51.880;12.630;2024-02-15T02:39:36;7.25;;;3.03;;
74967;SDS011;63523;51.880;12.630;2024-02-15T02:42:02;8.30;;;3.13;;
74967;SDS011;63523;51.880;12.630;2024-02-15T02:44:27;7.73;;;3.13;;
74967;SDS011;63523;51.880;12.630;2024-02-15T02:46:52;7.83;;;3.20;;
74967;SDS011;63523;51.880;12.630;2024-02-15T02:49:18;8.30;;;2.80;;
74967;SDS011;63523;51.880;12.630;2024-02-15T02:51:43;9.87;;;3.10;;
74967;SDS011;63523;51.880;12.630;2024-02-15T02:54:08;7.67;;;3.23;;
74967;SDS011;63523;51.880;12.630;2024-02-15T02:56:33;6.83;;;3.17;;
74967;SDS011;63523;51.880;12.630;2024-02-15T02:58:59;9.00;;;3.23;;
74967;SDS011;63523;51.880;12.630;2024-02-15T03:01:24;6.30;;;2.80;;
74967;SDS011;63523;51.880;12.630;2024-02-15T03:03:52;7.85;;;2.80;;
74967;SDS011;63523;51.880;12.630;2024-02-15T03:06:20;8.15;;;2.97;;
74967;SDS011;63523;51.880;12.630;2024-02-15T03:08:46;7.15;;;3.00;;
74967;SDS011;63523;51.880;12.630;2024-02-15T03:11:12;7.60;;;2.80;;
74967;SDS011;63523;51.880;12.630;2024-02-15T03:13:37;8.70;;;3.00;;
74967;SDS011;63523;51.880;12.630;2024-02-15T03:16:02;7.33;;;2.63;;
74967;SDS011;63523;51.880;12.630;2024-02-15T03:18:30;6.50;;;2.67;;
74967;SDS011;63523;51.880;12.630;2024-02-15T03:20:57;7.32;;;2.92;;
74967;SDS011;63523;51.880;12.630;2024-02-15T03:23:22;6.27;;;2.40;;
74967;SDS011;63523;51.880;12.630;2024-02-15T03:25:47;6.00;;;2.40;;
74967;SDS011;63523;51.880;12.630;2024-02-15T03:28:14;5.60;;;2.10;;
74967;SDS011;63523;51.880;12.630;2024-02-15T03:30:40;6.53;;;2.55;;
74967;SDS011;63523;51.880;12.630;2024-02-15T03:33:07;5.93;;;2.27;;
74967;SDS011;63523;51.880;12.630;2024-02-15T03:35:33;5.53;;;2.00;;
74967;SDS011;63523;51.880;12.630;2024-02-15T03:37:58;5.97;;;2.00;;
74967;SDS011;63523;51.880;12.630;2024-02-15T03:40:24;6.50;;;2.43;;
74967;SDS011;63523;51.880;12.630;2024-02-15T03:42:52;6.03;;;2.40;;
74967;SDS011;63523;51.880;12.630;2024-02-15T03:45:18;6.00;;;2.30;;
74967;SDS011;63523;51.880;12.630;2024-02-15T03:47:43;5.23;;;2.00;;
74967;SDS011;63523;51.880;12.630;2024-02-15T03:50:09;5.50;;;2.13;;
74967;SDS011;63523;51.880;12.630;2024-02-15T03:52:34;6.23;;;1.93;;
74967;SDS011;63523;51.880;12.630;2024-02-15T03:55:00;6.00;;;2.08;;
74967;SDS011;63523;51.880;12.630;2024-02-15T03:57:26;6.40;;;2.13;;
74967;SDS011;63523;51.880;12.630;2024-02-15T03:59:52;5.60;;;2.30;;
74967;SDS011;63523;51.880;12.630;2024-02-15T04:02:19;6.72;;;2.30;;
74967;SDS011;63523;51.880;12.630;2024-02-15T04:04:45;6.60;;;2.60;;
74967;SDS011;63523;51.880;12.630;2024-02-15T04:07:15;5.78;;;2.22;;
74967;SDS011;63523;51.880;12.630;2024-02-15T04:09:41;6.60;;;2.60;;
74967;SDS011;63523;51.880;12.630;2024-02-15T04:12:07;5.87;;;2.20;;
74967;SDS011;63523;51.880;12.630;2024-02-15T04:14:32;7.00;;;2.73;;
74967;SDS011;63523;51.880;12.630;2024-02-15T04:16:59;6.28;;;2.28;;
74967;SDS011;63523;51.880;12.630;2024-02-15T04:19:25;6.05;;;2.15;;
74967;SDS011;63523;51.880;12.630;2024-02-15T04:21:50;7.43;;;2.43;;
74967;SDS011;63523;51.880;12.630;2024-02-15T04:24:16;5.87;;;2.23;;
74967;SDS011;63523;51.880;12.630;2024-02-15T04:26:41;5.43;;;1.90;;
74967;SDS011;63523;51.880;12.630;2024-02-15T04:29:06;6.60;;;2.23;;
74967;SDS011;63523;51.880;12.630;2024-02-15T04:31:34;6.30;;;2.38;;
74967;SDS011;63523;51.880;12.630;2024-02-15T04:34:01;6.40;;;2.20;;
74967;SDS011;63523;51.880;12.630;2024-02-15T04:36:28;7.18;;;2.33;;
74967;SDS011;63523;51.880;12.630;2024-02-15T04:38:58;7.00;;;2.60;;
74967;SDS011;63523;51.880;12.630;2024-02-15T04:41:24;5.83;;;2.10;;
74967;SDS011;63523;51.880;12.630;2024-02-15T04:43:49;8.90;;;2.37;;
74967;SDS011;63523;51.880;12.630;2024-02-15T04:46:15;5.95;;;2.00;;
74967;SDS011;63523;51.880;12.630;2024-02-15T04:48:41;5.40;;;1.87;;
74967;SDS011;63523;51.880;12.630;2024-02-15T04:51:07;5.50;;;1.85;;
74967;SDS011;63523;51.880;12.630;2024-02-15T04:53:33;6.80;;;2.20;;
74967;SDS011;63523;51.880;12.630;2024-02-15T04:55:58;6.03;;;2.23;;
74967;SDS011;63523;51.880;12.630;2024-02-15T04:58:26;6.47;;;2.60;;
74967;SDS011;63523;51.880;12.630;2024-02-15T05:00:53;6.97;;;3.33;;
74967;SDS011;63523;51.880;12.630;2024-02-15T05:03:23;8.05;;;3.83;;
74967;SDS011;63523;51.880;12.630;2024-02-15T05:05:49;8.67;;;3.27;;
74967;SDS011;63523;51.880;12.630;2024-02-15T05:08:14;7.27;;;2.80;;
74967;SDS011;63523;51.880;12.630;2024-02-15T05:10:39;6.80;;;2.50;;
74967;SDS011;63523;51.880;12.630;2024-02-15T05:13:04;6.43;;;2.67;;
74967;SDS011;63523;51.880;12.630;2024-02-15T05:15:30;6.17;;;2.37;;
74967;SDS011;63523;51.880;12.630;2024-02-15T05:17:56;6.25;;;1.90;;
74967;SDS011;63523;51.880;12.630;2024-02-15T05:20:21;5.83;;;2.30;;
74967;SDS011;63523;51.880;12.630;2024-02-15T05:22:46;5.43;;;2.10;;
74967;SDS011;63523;51.880;12.630;2024-02-15T05:25:11;5.97;;;1.93;;
74967;SDS011;63523;51.880;12.630;2024-02-15T05:27:37;6.00;;;2.10;;
74967;SDS011;63523;51.880;12.630;2024-02-15T05:30:03;6.90;;;2.13;;
74967;SDS011;63523;51.880;12.630;2024-02-15T05:32:33;6.93;;;2.50;;
74967;SDS011;63523;51.880;12.630;2024-02-15T05:35:06;5.95;;;2.08;;
74967;SDS011;63523;51.880;12.630;2024-02-15T05:37:33;5.78;;;2.13;;
74967;SDS011;63523;51.880;12.630;2024-02-15T05:39:59;5.20;;;1.67;;
74967;SDS011;63523;51.880;12.630;2024-02-15T05:42:25;5.93;;;2.33;;
74967;SDS011;63523;51.880;12.630;2024-02-15T05:44:51;5.63;;;1.95;;
74967;SDS011;63523;51.880;12.630;2024-02-15T05:47:17;6.03;;;2.10;;
74967;SDS011;63523;51.880;12.630;2024-02-15T05:49:42;5.57;;;2.20;;
74967;SDS011;63523;51.880;12.630;2024-02-15T05:52:08;5.25;;;2.13;;
74967;SDS011;63523;51.880;12.630;2024-02-15T05:54:33;6.20;;;2.50;;
74967;SDS011;63523;51.880;12.630;2024-02-15T05:56:59;6.73;;;2.53;;
74967;SDS011;63523;51.880;12.630;2024-02-15T05:59:25;6.75;;;2.10;;
74967;SDS011;63523;51.880;12.630;2024-02-15T06:01:51;5.73;;;2.00;;
74967;SDS011;63523;51.880;12.630;2024-02-15T06:04:16;6.13;;;2.20;;
74967;SDS011;63523;51.880;12.630;2024-02-15T06:06:41;5.60;;;2.00;;
74967;SDS011;63523;51.880;12.630;2024-02-15T06:09:07;6.63;;;2.47;;
74967;SDS011;63523;51.880;12.630;2024-02-15T06:11:33;6.00;;;2.17;;
74967;SDS011;63523;51.880;12.630;2024-02-15T06:13:58;7.00;;;2.30;;
74967;SDS011;63523;51.880;12.630;2024-02-15T06:16:23;6.90;;;2.50;;
74967;SDS011;63523;51.880;12.630;2024-02-15T06:18:48;5.93;;;2.10;;
74967;SDS011;63523;51.880;12.630;2024-02-15T06:21:14;7.10;;;2.47;;
74967;SDS011;63523;51.880;12.630;2024-02-15T06:23:39;6.83;;;1.97;;
74967;SDS011;63523;51.880;12.630;2024-02-15T06:26:05;7.63;;;2.63;;
74967;SDS011;63523;51.880;12.630;2024-02-15T06:28:31;6.55;;;2.40;;
74967;SDS011;63523;51.880;12.630;2024-02-15T06:31:15;8.13;;;2.72;;
74967;SDS011;63523;51.880;12.630;2024-02-15T06:34:00;7.17;;;2.87;;
74967;SDS011;63523;51.880;12.630;2024-02-15T06:36:52;6.20;;;2.42;;
74967;SDS011;63523;51.880;12.630;2024-02-15T06:39:37;6.43;;;2.28;;
74967;SDS011;63523;51.880;12.630;2024-02-15T06:42:15;7.30;;;2.60;;
74967;SDS011;63523;51.880;12.630;2024-02-15T06:44:43;7.65;;;2.95;;
74967;SDS011;63523;51.880;12.630;2024-02-15T06:47:09;9.17;;;3.70;;
74967;SDS011;63523;51.880;12.630;2024-02-15T06:49:36;8.07;;;3.00;;
74967;SDS011;63523;51.880;12.630;2024-02-15T06:52:05;7.38;;;2.80;;
74967;SDS011;63523;51.880;12.630;2024-02-15T06:54:32;7.95;;;2.55;;
74967;SDS011;63523;51.880;12.630;2024-02-15T06:56:58;8.38;;;2.50;;
74967;SDS011;63523;51.880;12.630;2024-02-15T06:59:23;7.07;;;2.10;;
74967;SDS011;63523;51.880;12.630;2024-02-15T07:01:49;7.57;;;2.30;;
74967;SDS011;63523;51.880;12.630;2024-02-15T07:04:17;6.75;;;2.50;;
74967;SDS011;63523;51.880;12.630;2024-02-15T07:06:42;6.77;;;2.10;;
74967;SDS011;63523;51.880;12.630;2024-02-15T07:09:11;5.35;;;2.10;;
74967;SDS011;63523;51.880;12.630;2024-02-15T07:11:36;7.20;;;2.60;;
74967;SDS011;63523;51.880;12.630;2024-02-15T07:14:01;8.83;;;1.93;;
74967;SDS011;63523;51.880;12.630;2024-02-15T07:16:29;5.53;;;1.90;;
74967;SDS011;63523;51.880;12.630;2024-02-15T07:18:54;6.27;;;1.83;;
74967;SDS011;63523;51.880;12.630;2024-02-15T07:21:20;6.73;;;2.27;;
74967;SDS011;63523;51.880;12.630;2024-02-15T07:23:50;5.63;;;2.15;;
74967;SDS011;63523;51.880;12.630;2024-02-15T07:26:16;5.90;;;1.90;;
74967;SDS011;63523;51.880;12.630;2024-02-15T07:28:41;5.50;;;1.87;;
74967;SDS011;63523;51.880;12.630;2024-02-15T07:31:07;6.70;;;2.23;;
74967;SDS011;63523;51.880;12.630;2024-02-15T07:33:32;6.82;;;2.28;;
74967;SDS011;63523;51.880;12.630;2024-02-15T07:36:00;6.28;;;2.35;;
74967;SDS011;63523;51.880;12.630;2024-02-15T07:38:25;5.90;;;2.23;;
74967;SDS011;63523;51.880;12.630;2024-02-15T07:40:51;7.50;;;2.10;;
74967;SDS011;63523;51.880;12.630;2024-02-15T07:43:16;6.67;;;1.80;;
74967;SDS011;63523;51.880;12.630;2024-02-15T07:45:41;6.35;;;2.10;;
74967;SDS011;63523;51.880;12.630;2024-02-15T07:48:07;6.67;;;1.97;;
74967;SDS011;63523;51.880;12.630;2024-02-15T07:50:32;5.10;;;2.17;;
74967;SDS011;63523;51.880;12.630;2024-02-15T07:52:57;6.57;;;2.10;;
74967;SDS011;63523;51.880;12.630;2024-02-15T07:55:23;5.77;;;2.40;;
74967;SDS011;63523;51.880;12.630;2024-02-15T07:57:49;5.93;;;2.30;;
74967;SDS011;63523;51.880;12.630;2024-02-15T08:00:15;6.47;;;1.98;;
74967;SDS011;63523;51.880;12.630;2024-02-15T08:02:41;5.20;;;1.80;;
74967;SDS011;63523;51.880;12.630;2024-02-15T08:05:07;6.10;;;2.17;;
74967;SDS011;63523;51.880;12.630;2024-02-15T08:07:44;5.63;;;2.20;;
74967;SDS011;63523;51.880;12.630;2024-02-15T08:10:11;5.03;;;1.60;;
74967;SDS011;63523;51.880;12.630;2024-02-15T08:15:06;5.68;;;2.15;;
74967;SDS011;63523;51.880;12.630;2024-02-15T08:17:36;5.33;;;2.10;;
74967;SDS011;63523;51.880;12.630;2024-02-15T08:20:04;5.45;;;2.05;;
74967;SDS011;63523;51.880;12.630;2024-02-15T08:22:32;4.75;;;1.60;;
74967;SDS011;63523;51.880;12.630;2024-02-15T08:24:57;5.13;;;1.77;;
74967;SDS011;63523;51.880;12.630;2024-02-15T08:27:22;3.97;;;1.30;;
74967;SDS011;63523;51.880;12.630;2024-02-15T08:29:48;5.78;;;1.90;;
74967;SDS011;63523;51.880;12.630;2024-02-15T08:32:13;5.03;;;1.70;;
74967;SDS011;63523;51.880;12.630;2024-02-15T08:34:39;5.67;;;2.20;;
74967;SDS011;63523;51.880;12.630;2024-02-15T08:37:04;5.83;;;2.03;;
74967;SDS011;63523;51.880;12.630;2024-02-15T08:39:30;5.20;;;1.88;;
74967;SDS011;63523;51.880;12.630;2024-02-15T08:41:55;5.40;;;1.57;;
74967;SDS011;63523;51.880;12.630;2024-02-15T08:44:20;5.67;;;1.83;;
74967;SDS011;63523;51.880;12.630;2024-02-15T08:46:46;4.77;;;1.70;;
74967;SDS011;63523;51.880;12.630;2024-02-15T08:49:13;4.60;;;1.77;;
74967;SDS011;63523;51.880;12.630;2024-02-15T08:51:38;7.05;;;1.70;;
74967;SDS011;63523;51.880;12.630;2024-02-15T08:54:04;5.53;;;2.00;;
74967;SDS011;63523;51.880;12.630;2024-02-15T08:56:29;5.23;;;1.80;;
74967;SDS011;63523;51.880;12.630;2024-02-15T08:58:54;6.23;;;1.87;;
74967;SDS011;63523;51.880;12.630;2024-02-15T09:01:19;7.20;;;2.10;;
74967;SDS011;63523;51.880;12.630;2024-02-15T09:03:45;5.77;;;1.77;;
74967;SDS011;63523;51.880;12.630;2024-02-15T09:06:10;4.80;;;1.80;;
74967;SDS011;63523;51.880;12.630;2024-02-15T09:08:35;5.17;;;1.63;;
74967;SDS011;63523;51.880;12.630;2024-02-15T09:11:01;5.38;;;1.70;;
74967;SDS011;63523;51.880;12.630;2024-02-15T09:13:26;5.37;;;2.10;;
74967;SDS011;63523;51.880;12.630;2024-02-15T09:15:51;6.13;;;1.60;;
74967;SDS011;63523;51.880;12.630;2024-02-15T09:18:16;5.70;;;1.93;;
74967;SDS011;63523;51.880;12.630;2024-02-15T09:20:47;8.67;;;2.40;;
74967;SDS011;63523;51.880;12.630;2024-02-15T09:23:14;6.00;;;1.92;;
74967;SDS011;63523;51.880;12.630;2024-02-15T09:25:39;5.28;;;1.90;;
74967;SDS011;63523;51.880;12.630;2024-02-15T09:28:05;6.40;;;1.90;;
74967;SDS011;63523;51.880;12.630;2024-02-15T09:30:30;4.87;;;1.40;;
74967;SDS011;63523;51.880;12.630;2024-02-15T09:32:57;6.30;;;2.40;;
74967;SDS011;63523;51.880;12.630;2024-02-15T09:35:22;7.38;;;2.50;;
74967;SDS011;63523;51.880;12.630;2024-02-15T09:37:48;6.27;;;2.10;;
74967;SDS011;63523;51.880;12.630;2024-02-15T09:40:14;6.18;;;2.35;;
74967;SDS011;63523;51.880;12.630;2024-02-15T09:42:41;7.25;;;2.45;;
74967;SDS011;63523;51.880;12.630;2024-02-15T09:45:09;4.95;;;1.80;;
74967;SDS011;63523;51.880;12.630;2024-02-15T09:47:36;5.83;;;1.87;;
74967;SDS011;63523;51.880;12.630;2024-02-15T09:50:04;7.43;;;2.00;;
74967;SDS011;63523;51.880;12.630;2024-02-15T09:52:39;6.80;;;2.13;;
74967;SDS011;63523;51.880;12.630;2024-02-15T09:55:05;5.65;;;2.20;;
74967;SDS011;63523;51.880;12.630;2024-02-15T09:57:35;6.72;;;2.30;;
74967;SDS011;63523;51.880;12.630;2024-02-15T10:00:00;5.93;;;2.20;;
74967;SDS011;63523;51.880;12.630;2024-02-15T10:02:28;6.70;;;2.30;;
74967;SDS011;63523;51.880;12.630;2024-02-15T10:04:53;6.32;;;2.40;;
74967;SDS011;63523;51.880;12.630;2024-02-15T10:07:23;6.90;;;2.22;;
74967;SDS011;63523;51.880;12.630;2024-02-15T10:09:49;5.88;;;2.50;;
74967;SDS011;63523;51.880;12.630;2024-02-15T10:12:15;6.63;;;2.20;;
74967;SDS011;63523;51.880;12.630;2024-02-15T10:14:44;5.73;;;1.90;;
74967;SDS011;63523;51.880;12.630;2024-02-15T10:17:14;6.40;;;2.35;;
74967;SDS011;63523;51.880;12.630;2024-02-15T10:19:42;6.30;;;2.20;;
74967;SDS011;63523;51.880;12.630;2024-02-15T10:22:09;5.45;;;1.95;;
74967;SDS011;63523;51.880;12.630;2024-02-15T10:24:36;5.45;;;2.10;;
74967;SDS011;63523;51.880;12.630;2024-02-15T10:27:04;5.85;;;2.10;;
74967;SDS011;63523;51.880;12.630;2024-02-15T10:29:32;6.88;;;2.40;;
74967;SDS011;63523;51.880;12.630;2024-02-15T10:32:01;5.17;;;1.87;;
74967;SDS011;63523;51.880;12.630;2024-02-15T10:34:28;5.97;;;1.90;;
74967;SDS011;63523;51.880;12.630;2024-02-15T10:36:54;5.03;;;2.00;;
74967;SDS011;63523;51.880;12.630;2024-02-15T10:39:22;4.50;;;1.50;;
74967;SDS011;63523;51.880;12.630;2024-02-15T10:44:18;6.47;;;2.10;;
74967;SDS011;63523;51.880;12.630;2024-02-15T10:46:46;5.32;;;1.95;;
74967;SDS011;63523;51.880;12.630;2024-02-15T10:49:16;4.93;;;1.88;;
74967;SDS011;63523;51.880;12.630;2024-02-15T10:51:43;5.07;;;1.65;;
74967;SDS011;63523;51.880;12.630;2024-02-15T10:54:11;6.85;;;2.33;;
74967;SDS011;63523;51.880;12.630;2024-02-15T10:56:43;4.67;;;1.80;;
74967;SDS011;63523;51.880;12.630;2024-02-15T10:59:17;5.18;;;1.63;;
74967;SDS011;63523;51.880;12.630;2024-02-15T11:01:44;5.50;;;1.90;;
74967;SDS011;63523;51.880;12.630;2024-02-15T11:04:12;5.30;;;1.60;;
74967;SDS011;63523;51.880;12.630;2024-02-15T11:06:40;6.20;;;2.50;;
74967;SDS011;63523;51.880;12.630;2024-02-15T11:09:09;10.70;;;2.53;;
74967;SDS011;63523;51.880;12.630;2024-02-15T11:11:36;7.97;;;2.60;;
74967;SDS011;63523;51.880;12.630;2024-02-15T11:16:52;7.18;;;2.55;;
74967;SDS011;63523;51.880;12.630;2024-02-15T11:22:02;6.82;;;2.17;;
74967;SDS011;63523;51.880;12.630;2024-02-15T11:24:35;6.50;;;2.33;;
74967;SDS011;63523;51.880;12.630;2024-02-15T11:27:04;6.68;;;2.00;;
74967;SDS011;63523;51.880;12.630;2024-02-15T11:35:05;5.28;;;2.17;;
74967;SDS011;63523;51.880;12.630;2024-02-15T11:40:15;6.43;;;2.17;;
74967;SDS011;63523;51.880;12.630;2024-02-15T11:42:42;8.97;;;2.07;;
74967;SDS011;63523;51.880;12.630;2024-02-15T11:45:08;5.82;;;2.00;;
74967;SDS011;63523;51.880;12.630;2024-02-15T11:47:36;6.03;;;2.10;;
74967;SDS011;63523;51.880;12.630;2024-02-15T11:50:03;6.40;;;1.90;;
74967;SDS011;63523;51.880;12.630;2024-02-15T11:52:30;5.80;;;1.90;;
74967;SDS011;63523;51.880;12.630;2024-02-15T11:55:04;6.78;;;2.10;;
74967;SDS011;63523;51.880;12.630;2024-02-15T11:57:29;5.43;;;2.28;;
74967;SDS011;63523;51.880;12.630;2024-02-15T12:00:03;5.18;;;2.08;;
74967;SDS011;63523;51.880;12.630;2024-02-15T12:02:59;5.47;;;2.30;;
74967;SDS011;63523;51.880;12.630;2024-02-15T12:05:44;4.90;;;1.90;;
74967;SDS011;63523;51.880;12.630;2024-02-15T12:08:28;7.35;;;2.03;;
74967;SDS011;63523;51.880;12.630;2024-02-15T12:11:13;5.72;;;2.10;;
74967;SDS011;63523;51.880;12.630;2024-02-15T12:13:58;5.95;;;1.95;;
74967;SDS011;63523;51.880;12.630;2024-02-15T12:16:42;4.90;;;1.80;;
74967;SDS011;63523;51.880;12.630;2024-02-15T12:19:26;5.57;;;2.10;;
74967;SDS011;63523;51.880;12.630;2024-02-15T12:21:51;8.02;;;1.90;;
74967;SDS011;63523;51.880;12.630;2024-02-15T12:24:17;4.97;;;1.80;;
74967;SDS011;63523;51.880;12.630;2024-02-15T12:26:46;5.85;;;1.67;;
74967;SDS011;63523;51.880;12.630;2024-02-15T12:29:15;6.93;;;2.47;;
74967;SDS011;63523;51.880;12.630;2024-02-15T12:31:42;4.57;;;1.80;;
74967;SDS011;63523;51.880;12.630;2024-02-15T12:34:09;5.85;;;1.73;;
74967;SDS011;63523;51.880;12.630;2024-02-15T12:36:35;6.07;;;2.03;;
74967;SDS011;63523;51.880;12.630;2024-02-15T12:39:05;5.13;;;1.73;;
74967;SDS011;63523;51.880;12.630;2024-02-15T12:41:39;4.50;;;1.50;;
74967;SDS011;63523;51.880;12.630;2024-02-15T12:44:06;4.97;;;1.73;;
74967;SDS011;63523;51.880;12.630;2024-02-15T12:46:33;7.25;;;2.03;;
74967;SDS011;63523;51.880;12.630;2024-02-15T12:51:49;4.05;;;1.20;;
74967;SDS011;63523;51.880;12.630;2024-02-15T12:54:19;5.00;;;1.57;;
74967;SDS011;63523;51.880;12.630;2024-02-15T12:56:46;3.60;;;1.10;;
74967;SDS011;63523;51.880;12.630;2024-02-15T12:59:13;5.30;;;1.15;;
74967;SDS011;63523;51.880;12.630;2024-02-15T13:01:39;3.97;;;1.20;;
74967;SDS011;63523;51.880;12.630;2024-02-15T13:04:04;5.57;;;1.45;;
74967;SDS011;63523;51.880;12.630;2024-02-15T13:06:31;4.40;;;1.10;;
74967;SDS011;63523;51.880;12.630;2024-02-15T13:08:59;4.05;;;1.20;;
74967;SDS011;63523;51.880;12.630;2024-02-15T13:11:25;3.42;;;0.93;;
74967;SDS011;63523;51.880;12.630;2024-02-15T13:13:51;3.50;;;1.00;;
74967;SDS011;63523;51.880;12.630;2024-02-15T13:16:16;3.93;;;0.97;;
74967;SDS011;63523;51.880;12.630;2024-02-15T13:18:41;3.73;;;1.30;;
74967;SDS011;63523;51.880;12.630;2024-02-15T13:21:07;3.80;;;1.20;;
74967;SDS011;63523;51.880;12.630;2024-02-15T13:23:32;3.80;;;1.20;;
74967;SDS011;63523;51.880;12.630;2024-02-15T13:25:58;4.63;;;0.87;;
74967;SDS011;63523;51.880;12.630;2024-02-15T13:28:27;3.80;;;1.20;;
74967;SDS011;63523;51.880;12.630;2024-02-15T13:30:52;6.23;;;0.90;;
74967;SDS011;63523;51.880;12.630;2024-02-15T13:33:21;5.15;;;1.13;;
74967;SDS011;63523;51.880;12.630;2024-02-15T13:35:46;4.50;;;1.10;;
74967;SDS011;63523;51.880;12.630;2024-02-15T13:38:14;5.13;;;1.00;;
74967;SDS011;63523;51.880;12.630;2024-02-15T13:40:47;3.73;;;1.00;;
74967;SDS011;63523;51.880;12.630;2024-02-15T13:43:14;4.50;;;1.17;;
74967;SDS011;63523;51.880;12.630;2024-02-15T13:45:41;3.42;;;0.80;;
74967;SDS011;63523;51.880;12.630;2024-02-15T13:48:09;3.92;;;0.82;;
74967;SDS011;63523;51.880;12.630;2024-02-15T13:50:35;3.03;;;0.70;;
74967;SDS011;63523;51.880;12.630;2024-02-15T13:53:01;3.35;;;0.80;;
74967;SDS011;63523;51.880;12.630;2024-02-15T13:55:27;3.78;;;1.08;;
74967;SDS011;63523;51.880;12.630;2024-02-15T13:57:54;3.22;;;0.90;;
74967;SDS011;63523;51.880;12.630;2024-02-15T14:00:22;2.90;;;0.50;;
74967;SDS011;63523;51.880;12.630;2024-02-15T14:02:55;2.88;;;0.70;;
74967;SDS011;63523;51.880;12.630;2024-02-15T14:05:22;4.10;;;0.60;;
74967;SDS011;63523;51.880;12.630;2024-02-15T14:08:00;3.55;;;0.80;;
74967;SDS011;63523;51.880;12.630;2024-02-15T14:10:30;3.33;;;0.80;;
74967;SDS011;63523;51.880;12.630;2024-02-15T14:12:58;3.60;;;0.60;;
74967;SDS011;63523;51.880;12.630;2024-02-15T14:15:24;3.70;;;0.85;;
74967;SDS011;63523;51.880;12.630;2024-02-15T14:17:50;3.35;;;0.88;;
74967;SDS011;63523;51.880;12.630;2024-02-15T14:20:16;3.43;;;0.70;;
74967;SDS011;63523;51.880;12.630;2024-02-15T14:22:43;3.92;;;1.23;;
74967;SDS011;63523;51.880;12.630;2024-02-15T14:25:09;3.50;;;1.00;;
74967;SDS011;63523;51.880;12.630;2024-02-15T14:27:36;3.60;;;1.00;;
74967;SDS011;63523;51.880;12.630;2024-02-15T14:30:03;3.25;;;0.93;;
74967;SDS011;63523;51.880;12.630;2024-02-15T14:32:47;4.30;;;1.17;;
74967;SDS011;63523;51.880;12.630;2024-02-15T14:35:35;4.97;;;1.10;;
74967;SDS011;63523;51.880;12.630;2024-02-15T14:38:03;4.17;;;1.27;;
74967;SDS011;63523;51.880;12.630;2024-02-15T14:40:33;5.00;;;1.63;;
74967;SDS011;63523;51.880;12.630;2024-02-15T14:42:59;3.95;;;1.30;;
74967;SDS011;63523;51.880;12.630;2024-02-15T14:45:24;4.43;;;1.33;;
74967;SDS011;63523;51.880;12.630;2024-02-15T14:47:50;4.30;;;1.30;;
74967;SDS011;63523;51.880;12.630;2024-02-15T14:50:15;3.40;;;1.00;;
74967;SDS011;63523;51.880;12.630;2024-02-15T14:52:40;2.78;;;0.70;;
74967;SDS011;63523;51.880;12.630;2024-02-15T14:55:06;2.50;;;0.53;;